createdAt,value
2023-08-28T00:01:33.144Z,0.80
2023-08-28T00:04:00.476Z,0.80
2023-08-28T00:06:27.983Z,1.00
2023-08-28T00:08:55.307Z,0.95
2023-08-28T00:11:22.604Z,0.90
2023-08-28T00:13:49.814Z,0.80
2023-08-28T00:16:17.125Z,0.80
2023-08-28T00:18:44.466Z,0.70
2023-08-28T00:21:11.781Z,0.70
2023-08-28T00:23:38.938Z,0.88
2023-08-28T00:26:05.808Z,0.80
2023-08-28T00:28:32.711Z,0.80
2023-08-28T00:31:00.676Z,0.70
2023-08-28T00:33:27.973Z,0.82
2023-08-28T00:35:54.923Z,0.85
2023-08-28T00:38:22.252Z,0.85
2023-08-28T00:40:49.927Z,0.80
2023-08-28T00:43:16.827Z,0.70
2023-08-28T00:45:44.892Z,0.85
2023-08-28T00:48:15.523Z,0.60
2023-08-28T00:50:42.915Z,0.73
2023-08-28T00:53:12.891Z,0.90
2023-08-28T00:55:41.440Z,0.90
2023-08-28T00:58:08.764Z,0.82
2023-08-28T01:00:36.086Z,0.82
2023-08-28T01:03:03.843Z,0.98
2023-08-28T01:05:43.030Z,0.70
2023-08-28T01:08:20.804Z,0.73
2023-08-28T01:10:54.634Z,0.98
2023-08-28T01:13:29.712Z,0.77
2023-08-28T01:15:58.237Z,0.77
2023-08-28T01:18:26.282Z,0.80
2023-08-28T01:20:54.926Z,0.80
2023-08-28T01:23:29.764Z,1.23
2023-08-28T01:25:57.495Z,0.73
2023-08-28T01:28:25.776Z,1.00
2023-08-28T01:30:54.619Z,0.82
2023-08-28T01:33:22.292Z,0.70
2023-08-28T01:35:57.494Z,0.60
2023-08-28T01:38:45.625Z,0.75
2023-08-28T01:41:14.067Z,0.95
2023-08-28T01:43:48.587Z,0.88
2023-08-28T01:46:17.313Z,0.77
2023-08-28T01:48:54.738Z,0.85
2023-08-28T01:51:22.181Z,0.70
2023-08-28T01:53:49.724Z,0.98
2023-08-28T01:56:22.141Z,0.70
2023-08-28T01:59:07.193Z,0.90
2023-08-28T02:01:34.588Z,0.77
2023-08-28T02:04:01.874Z,0.68
2023-08-28T02:06:29.368Z,1.10
2023-08-28T02:08:56.685Z,0.60
2023-08-28T02:11:23.969Z,0.80
2023-08-28T02:13:50.918Z,0.70
2023-08-28T02:16:18.660Z,0.98
2023-08-28T02:18:45.638Z,0.80
2023-08-28T02:21:12.965Z,0.82
2023-08-28T02:23:39.835Z,0.75
2023-08-28T02:26:07.220Z,0.80
2023-08-28T02:28:34.340Z,0.70
2023-08-28T02:31:04.841Z,0.80
2023-08-28T02:33:33.135Z,0.90
2023-08-28T02:36:02.378Z,0.85
2023-08-28T02:38:29.704Z,0.90
2023-08-28T02:41:04.648Z,0.70
2023-08-28T02:43:32.055Z,0.60
2023-08-28T02:45:59.243Z,0.77
2023-08-28T02:48:28.903Z,0.88
2023-08-28T02:50:56.792Z,0.70
2023-08-28T02:53:23.691Z,0.73
2023-08-28T02:56:11.531Z,1.02
2023-08-28T02:58:38.817Z,0.80
2023-08-28T03:01:06.092Z,0.77
2023-08-28T03:03:35.310Z,0.95
2023-08-28T03:06:02.959Z,0.70
2023-08-28T03:08:30.880Z,0.80
2023-08-28T03:10:58.208Z,0.60
2023-08-28T03:13:25.468Z,0.70
2023-08-28T03:15:52.431Z,0.77
2023-08-28T03:18:19.957Z,0.60
2023-08-28T03:20:47.958Z,0.93
2023-08-28T03:23:14.924Z,0.70
2023-08-28T03:25:41.759Z,0.70
2023-08-28T03:28:09.183Z,0.73
2023-08-28T03:30:36.143Z,0.82
2023-08-28T03:33:03.715Z,1.17
2023-08-28T03:35:32.183Z,0.63
2023-08-28T03:37:59.465Z,0.85
2023-08-28T03:40:26.370Z,1.13
2023-08-28T03:42:53.918Z,0.80
2023-08-28T03:45:20.845Z,0.80
2023-08-28T03:47:47.794Z,0.90
2023-08-28T03:50:14.772Z,1.10
2023-08-28T03:52:42.034Z,1.27
2023-08-28T03:55:09.496Z,0.75
2023-08-28T03:57:37.987Z,0.85
2023-08-28T04:00:15.952Z,1.02
2023-08-28T04:02:43.154Z,0.90
2023-08-28T04:05:10.099Z,0.90
2023-08-28T04:07:37.412Z,1.00
2023-08-28T04:10:04.915Z,1.00
2023-08-28T04:12:33.196Z,1.05
2023-08-28T04:15:00.316Z,1.00
2023-08-28T04:17:27.787Z,0.90
2023-08-28T04:19:56.423Z,1.00
2023-08-28T04:22:24.052Z,1.00
2023-08-28T04:24:51.833Z,0.80
2023-08-28T04:27:19.271Z,0.80
2023-08-28T04:29:46.103Z,0.68
2023-08-28T04:32:14.209Z,0.82
2023-08-28T04:34:41.534Z,1.10
2023-08-28T04:37:08.830Z,0.57
2023-08-28T04:39:36.159Z,0.70
2023-08-28T04:42:03.072Z,0.70
2023-08-28T04:44:30.268Z,0.75
2023-08-28T04:46:59.969Z,0.77
2023-08-28T04:49:27.747Z,1.35
2023-08-28T04:51:56.700Z,0.82
2023-08-28T04:54:23.591Z,0.88
2023-08-28T04:56:50.909Z,0.98
2023-08-28T04:59:17.771Z,0.70
2023-08-28T05:01:45.046Z,0.70
2023-08-28T05:04:12.012Z,0.70
2023-08-28T05:06:39.705Z,0.80
2023-08-28T05:09:07.342Z,0.85
2023-08-28T05:11:34.740Z,1.00
2023-08-28T05:14:02.081Z,1.10
2023-08-28T05:16:28.970Z,0.90
2023-08-28T05:18:56.526Z,0.77
2023-08-28T05:21:23.549Z,0.90
2023-08-28T05:23:52.613Z,0.93
2023-08-28T05:26:19.496Z,1.10
2023-08-28T05:28:46.855Z,0.90
2023-08-28T05:31:13.769Z,0.90
2023-08-28T05:33:41.066Z,0.80
2023-08-28T05:36:08.424Z,0.77
2023-08-28T05:38:35.332Z,1.00
2023-08-28T05:41:02.683Z,0.80
2023-08-28T05:43:29.596Z,0.90
2023-08-28T05:45:56.911Z,0.77
2023-08-28T05:48:23.798Z,1.40
2023-08-28T05:50:51.609Z,1.10
2023-08-28T05:53:18.514Z,0.90
2023-08-28T05:55:46.681Z,1.00
2023-08-28T05:58:13.591Z,0.90
2023-08-28T06:00:40.919Z,1.10
2023-08-28T06:03:08.787Z,1.00
2023-08-28T06:05:35.938Z,0.82
2023-08-28T06:08:03.599Z,0.80
2023-08-28T06:10:31.382Z,1.17
2023-08-28T06:12:58.764Z,1.10
2023-08-28T06:15:26.453Z,0.80
2023-08-28T06:17:55.627Z,0.90
2023-08-28T06:20:23.707Z,1.00
2023-08-28T06:22:51.120Z,1.17
2023-08-28T06:25:18.235Z,1.25
2023-08-28T06:27:45.581Z,0.95
2023-08-28T06:30:13.071Z,0.90
2023-08-28T06:32:40.642Z,0.82
2023-08-28T06:35:08.256Z,1.10
2023-08-28T06:37:35.615Z,0.70
2023-08-28T06:40:04.881Z,1.02
2023-08-28T06:42:32.226Z,1.05
2023-08-28T06:45:01.393Z,1.42
2023-08-28T06:47:28.766Z,1.20
2023-08-28T06:49:57.347Z,1.00
2023-08-28T06:52:24.230Z,1.30
2023-08-28T06:54:52.457Z,0.80
2023-08-28T06:57:20.060Z,1.15
2023-08-28T06:59:47.601Z,1.20
2023-08-28T07:02:14.934Z,1.00
2023-08-28T07:04:41.859Z,1.00
2023-08-28T07:07:08.734Z,0.88
2023-08-28T07:09:35.786Z,1.13
2023-08-28T07:12:03.896Z,1.10
2023-08-28T07:14:30.796Z,0.90
2023-08-28T07:16:58.060Z,1.00
2023-08-28T07:19:25.098Z,1.00
2023-08-28T07:21:52.431Z,1.10
2023-08-28T07:24:19.956Z,1.08
2023-08-28T07:26:46.812Z,1.13
2023-08-28T07:29:13.973Z,1.10
2023-08-28T07:31:40.949Z,1.40
2023-08-28T07:34:08.365Z,1.00
2023-08-28T07:36:38.400Z,1.20
2023-08-28T07:39:05.681Z,1.20
2023-08-28T07:41:32.596Z,1.05
2023-08-28T07:43:59.466Z,1.15
2023-08-28T07:46:27.085Z,1.30
2023-08-28T07:48:55.666Z,1.13
2023-08-28T07:51:22.609Z,1.33
2023-08-28T07:53:49.890Z,1.13
2023-08-28T07:56:16.984Z,1.38
2023-08-28T07:58:43.995Z,1.20
2023-08-28T08:01:12.301Z,1.00
2023-08-28T08:03:39.472Z,1.00
2023-08-28T08:06:08.539Z,1.02
2023-08-28T08:08:35.526Z,0.80
2023-08-28T08:11:02.804Z,1.00
2023-08-28T08:13:30.350Z,1.25
2023-08-28T08:15:57.503Z,1.00
2023-08-28T08:18:24.449Z,1.23
2023-08-28T08:20:51.526Z,0.90
2023-08-28T08:23:18.489Z,1.10
2023-08-28T08:25:45.870Z,1.10
2023-08-28T08:28:13.785Z,1.08
2023-08-28T08:30:41.321Z,1.00
2023-08-28T08:33:08.863Z,0.70
2023-08-28T08:35:36.256Z,1.00
2023-08-28T08:38:03.187Z,0.90
2023-08-28T08:40:30.122Z,0.90
2023-08-28T08:42:57.187Z,0.82
2023-08-28T08:45:37.670Z,1.10
2023-08-28T08:48:08.222Z,1.08
2023-08-28T08:50:41.364Z,1.00
2023-08-28T08:53:26.466Z,0.80
2023-08-28T08:55:58.354Z,0.93
2023-08-28T08:58:26.092Z,0.70
2023-08-28T09:00:53.492Z,0.90
2023-08-28T09:03:22.417Z,1.00
2023-08-28T09:05:51.161Z,1.05
2023-08-28T09:08:19.900Z,0.80
2023-08-28T09:10:46.905Z,1.00
2023-08-28T09:13:13.816Z,0.90
2023-08-28T09:15:41.040Z,1.00
2023-08-28T09:18:08.149Z,0.88
2023-08-28T09:20:35.944Z,0.77
2023-08-28T09:23:02.930Z,1.30
2023-08-28T09:25:30.218Z,0.85
2023-08-28T09:27:58.198Z,0.90
2023-08-28T09:30:39.492Z,1.20
2023-08-28T09:33:09.002Z,1.00
2023-08-28T09:35:44.594Z,1.10
2023-08-28T09:38:12.693Z,1.20
2023-08-28T09:40:42.199Z,1.10
2023-08-28T09:43:16.278Z,1.15
2023-08-28T09:45:45.650Z,0.98
2023-08-28T09:48:13.497Z,1.20
2023-08-28T09:50:42.090Z,1.40
2023-08-28T09:53:13.732Z,1.25
2023-08-28T09:55:50.043Z,1.48
2023-08-28T09:58:17.418Z,1.00
2023-08-28T10:00:44.745Z,1.20
2023-08-28T10:03:15.710Z,1.20
2023-08-28T10:05:44.980Z,1.02
2023-08-28T10:08:13.476Z,1.10
2023-08-28T10:10:51.945Z,1.10
2023-08-28T10:13:22.762Z,1.20
2023-08-28T10:15:54.775Z,1.35
2023-08-28T10:18:40.991Z,1.25
2023-08-28T10:21:08.673Z,1.15
2023-08-28T10:23:36.520Z,1.70
2023-08-28T10:26:04.248Z,1.58
2023-08-28T10:28:33.571Z,1.40
2023-08-28T10:31:02.025Z,1.20
2023-08-28T10:33:31.933Z,1.13
2023-08-28T10:36:01.806Z,1.35
2023-08-28T10:38:29.717Z,2.45
2023-08-28T10:40:59.982Z,2.50
2023-08-28T10:43:28.161Z,1.75
2023-08-28T10:45:57.709Z,1.10
2023-08-28T10:48:25.081Z,1.05
2023-08-28T10:50:58.215Z,1.20
2023-08-28T10:53:27.198Z,1.00
2023-08-28T10:56:00.229Z,1.00
2023-08-28T10:58:53.303Z,0.85
2023-08-28T11:01:20.419Z,0.90
2023-08-28T11:03:53.168Z,0.85
2023-08-28T11:06:37.231Z,0.70
2023-08-28T11:09:29.006Z,0.93
2023-08-28T11:11:58.679Z,0.55
2023-08-28T11:15:02.305Z,0.73
2023-08-28T11:17:31.084Z,0.80
2023-08-28T11:19:58.154Z,0.93
2023-08-28T11:22:43.311Z,0.70
2023-08-28T11:25:14.900Z,0.90
2023-08-28T11:27:48.003Z,0.85
2023-08-28T11:30:23.071Z,0.77
2023-08-28T11:32:52.824Z,0.85
2023-08-28T11:35:21.310Z,0.90
2023-08-28T11:37:51.945Z,0.82
2023-08-28T11:40:28.983Z,4.18
2023-08-28T11:43:08.515Z,7.97
2023-08-28T11:45:36.129Z,6.15
2023-08-28T11:48:05.019Z,4.28
2023-08-28T11:50:32.530Z,2.38
2023-08-28T11:52:59.433Z,1.95
2023-08-28T11:55:26.981Z,1.17
2023-08-28T11:57:54.651Z,1.27
2023-08-28T12:00:22.358Z,1.10
2023-08-28T12:02:50.192Z,0.70
2023-08-28T12:05:20.840Z,0.70
2023-08-28T12:07:48.511Z,0.52
2023-08-28T12:10:17.442Z,0.80
2023-08-28T12:12:44.750Z,0.60
2023-08-28T12:15:12.142Z,0.70
2023-08-28T12:17:39.711Z,0.70
2023-08-28T12:20:11.328Z,0.95
2023-08-28T12:22:45.349Z,0.65
2023-08-28T12:25:12.665Z,0.77
2023-08-28T12:27:39.764Z,0.47
2023-08-28T12:30:08.642Z,0.60
2023-08-28T12:32:35.691Z,0.65
2023-08-28T12:35:13.164Z,0.77
2023-08-28T12:37:41.818Z,0.55
2023-08-28T12:40:12.239Z,0.60
2023-08-28T12:42:40.100Z,0.70
2023-08-28T12:45:07.685Z,0.60
2023-08-28T12:47:34.656Z,0.65
2023-08-28T12:50:01.786Z,0.90
2023-08-28T12:52:31.302Z,0.70
2023-08-28T12:55:00.065Z,0.50
2023-08-28T12:57:27.006Z,0.75
2023-08-28T12:59:53.949Z,0.52
2023-08-28T13:02:20.979Z,0.60
2023-08-28T13:04:49.140Z,0.55
2023-08-28T13:07:18.549Z,0.45
2023-08-28T13:09:47.321Z,0.70
2023-08-28T13:12:14.246Z,0.57
2023-08-28T13:14:41.130Z,0.50
2023-08-28T13:17:08.034Z,0.80
2023-08-28T13:19:35.023Z,0.70
2023-08-28T13:22:01.986Z,0.65
2023-08-28T13:24:37.912Z,0.63
2023-08-28T13:27:10.402Z,0.50
2023-08-28T13:29:37.635Z,1.10
2023-08-28T13:32:06.361Z,0.65
2023-08-28T13:34:33.273Z,0.43
2023-08-28T13:37:06.401Z,0.95
2023-08-28T13:39:33.977Z,0.50
2023-08-28T13:42:01.293Z,0.47
2023-08-28T13:44:31.079Z,0.60
2023-08-28T13:47:02.312Z,0.90
2023-08-28T13:49:29.534Z,0.57
2023-08-28T13:51:56.447Z,0.85
2023-08-28T13:54:23.619Z,0.68
2023-08-28T13:56:51.548Z,0.77
2023-08-28T13:59:18.555Z,0.50
2023-08-28T14:01:45.479Z,0.80
2023-08-28T14:04:13.347Z,0.52
2023-08-28T14:06:40.243Z,0.80
2023-08-28T14:09:07.230Z,0.50
2023-08-28T14:11:34.106Z,0.57
2023-08-28T14:14:01.387Z,0.73
2023-08-28T14:16:28.379Z,0.50
2023-08-28T14:18:55.307Z,0.60
2023-08-28T14:21:22.497Z,0.50
2023-08-28T14:23:49.384Z,0.60
2023-08-28T14:26:16.274Z,0.65
2023-08-28T14:28:43.545Z,0.50
2023-08-28T14:31:10.599Z,0.60
2023-08-28T14:33:39.101Z,0.57
2023-08-28T14:36:06.269Z,0.50
2023-08-28T14:38:33.452Z,0.50
2023-08-28T14:41:00.583Z,0.60
2023-08-28T14:43:27.449Z,0.57
2023-08-28T14:45:55.388Z,0.70
2023-08-28T14:48:22.420Z,0.80
2023-08-28T14:50:49.690Z,0.55
2023-08-28T14:53:16.611Z,0.93
2023-08-28T14:55:43.514Z,0.65
2023-08-28T14:58:10.381Z,0.50
2023-08-28T15:01:11.527Z,0.52
2023-08-28T15:03:38.588Z,0.50
2023-08-28T15:06:05.796Z,0.50
2023-08-28T15:08:32.746Z,0.60
2023-08-28T15:10:59.658Z,0.95
2023-08-28T15:13:26.500Z,0.52
2023-08-28T15:15:53.391Z,0.60
2023-08-28T15:18:20.380Z,0.60
2023-08-28T15:20:48.473Z,0.70
2023-08-28T15:23:15.881Z,0.40
2023-08-28T15:25:42.933Z,0.45
2023-08-28T15:28:10.343Z,0.68
2023-08-28T15:30:37.579Z,0.52
2023-08-28T15:33:05.292Z,0.60
2023-08-28T15:35:33.030Z,0.70
2023-08-28T15:38:00.597Z,0.45
2023-08-28T15:40:28.219Z,0.60
2023-08-28T15:42:56.182Z,0.60
2023-08-28T15:45:23.265Z,0.50
2023-08-28T15:47:50.369Z,0.50
2023-08-28T15:50:17.447Z,0.75
2023-08-28T15:52:44.325Z,0.50
2023-08-28T15:55:12.332Z,0.63
2023-08-28T15:57:39.241Z,0.60
2023-08-28T16:00:11.140Z,0.70
2023-08-28T16:02:38.141Z,0.52
2023-08-28T16:05:06.397Z,0.60
2023-08-28T16:07:33.399Z,1.42
2023-08-28T16:10:01.110Z,0.60
2023-08-28T16:12:28.003Z,0.88
2023-08-28T16:14:54.877Z,0.90
2023-08-28T16:17:21.789Z,0.50
2023-08-28T16:19:48.685Z,0.60
2023-08-28T16:22:15.587Z,0.68
2023-08-28T16:24:42.560Z,0.88
2023-08-28T16:27:15.194Z,0.45
2023-08-28T16:29:42.852Z,0.60
2023-08-28T16:32:09.741Z,0.60
2023-08-28T16:34:36.695Z,0.50
2023-08-28T16:37:03.688Z,0.40
2023-08-28T16:39:30.580Z,0.82
2023-08-28T16:41:58.553Z,0.45
2023-08-28T16:44:25.805Z,0.57
2023-08-28T16:46:52.901Z,0.50
2023-08-28T16:49:20.044Z,0.70
2023-08-28T16:51:46.981Z,0.85
2023-08-28T16:54:13.844Z,0.50
2023-08-28T16:56:40.848Z,0.70
2023-08-28T16:59:07.794Z,0.80
2023-08-28T17:01:34.830Z,0.68
2023-08-28T17:04:02.190Z,0.88
2023-08-28T17:06:29.834Z,0.50
2023-08-28T17:08:56.772Z,0.50
2023-08-28T17:11:24.244Z,0.80
2023-08-28T17:13:51.265Z,0.60
2023-08-28T17:16:18.284Z,0.77
2023-08-28T17:18:48.841Z,0.60
2023-08-28T17:21:16.381Z,0.70
2023-08-28T17:23:43.867Z,0.70
2023-08-28T17:26:12.185Z,0.63
2023-08-28T17:28:39.278Z,0.73
2023-08-28T17:31:06.202Z,0.50
2023-08-28T17:33:33.150Z,0.70
2023-08-28T17:36:00.601Z,0.60
2023-08-28T17:38:27.516Z,0.50
2023-08-28T17:40:54.496Z,0.63
2023-08-28T17:43:23.424Z,0.47
2023-08-28T17:45:51.971Z,0.90
2023-08-28T17:48:19.144Z,0.68
2023-08-28T17:50:46.103Z,0.80
2023-08-28T17:53:13.122Z,0.50
2023-08-28T17:55:40.107Z,0.80
2023-08-28T17:58:07.109Z,0.98
2023-08-28T18:00:34.009Z,0.80
2023-08-28T18:03:04.352Z,1.20
2023-08-28T18:05:32.894Z,0.68
2023-08-28T18:08:01.666Z,0.90
2023-08-28T18:10:28.581Z,0.80
2023-08-28T18:12:55.542Z,1.10
2023-08-28T18:15:22.433Z,1.10
2023-08-28T18:17:50.978Z,0.93
2023-08-28T18:20:20.776Z,1.40
2023-08-28T18:22:47.905Z,1.33
2023-08-28T18:25:15.049Z,0.98
2023-08-28T18:28:00.077Z,1.40
2023-08-28T18:30:28.957Z,1.20
2023-08-28T18:32:55.824Z,1.17
2023-08-28T18:35:22.840Z,1.80
2023-08-28T18:37:50.431Z,1.00
2023-08-28T18:40:17.467Z,1.17
2023-08-28T18:42:44.640Z,1.30
2023-08-28T18:45:12.100Z,1.20
2023-08-28T18:47:38.963Z,1.38
2023-08-28T18:50:06.386Z,1.35
2023-08-28T18:52:33.248Z,1.45
2023-08-28T18:55:00.162Z,3.00
2023-08-28T18:57:27.051Z,2.70
2023-08-28T18:59:54.156Z,1.80
2023-08-28T19:02:21.037Z,1.42
2023-08-28T19:04:47.922Z,1.20
2023-08-28T19:07:14.827Z,1.20
2023-08-28T19:09:41.775Z,1.20
2023-08-28T19:12:09.019Z,1.20
2023-08-28T19:14:36.005Z,1.25
2023-08-28T19:17:03.159Z,1.10
2023-08-28T19:19:30.338Z,1.20
2023-08-28T19:21:57.822Z,1.05
2023-08-28T19:24:24.763Z,0.80
2023-08-28T19:26:52.095Z,0.85
2023-08-28T19:29:19.042Z,1.15
2023-08-28T19:31:45.889Z,0.63
2023-08-28T19:34:12.875Z,1.00
2023-08-28T19:36:39.864Z,0.95
2023-08-28T19:39:08.183Z,1.08
2023-08-28T19:41:35.073Z,0.77
2023-08-28T19:44:01.961Z,0.93
2023-08-28T19:46:29.186Z,0.90
2023-08-28T19:48:56.253Z,1.27
2023-08-28T19:51:28.614Z,1.60
2023-08-28T19:53:55.982Z,1.65
2023-08-28T19:56:22.958Z,1.13
2023-08-28T19:58:49.837Z,1.40
2023-08-28T20:01:16.740Z,1.25
2023-08-28T20:03:43.669Z,0.93
2023-08-28T20:06:11.497Z,1.00
2023-08-28T20:08:38.474Z,1.17
2023-08-28T20:11:08.187Z,1.27
2023-08-28T20:13:35.995Z,0.98
2023-08-28T20:16:03.428Z,1.33
2023-08-28T20:18:30.914Z,0.90
2023-08-28T20:20:57.752Z,0.95
2023-08-28T20:23:24.761Z,2.45
2023-08-28T20:25:51.628Z,1.98
2023-08-28T20:28:18.481Z,2.30
2023-08-28T20:30:45.322Z,2.70
2023-08-28T20:33:12.218Z,1.50
2023-08-28T20:35:39.125Z,1.40
2023-08-28T20:38:06.309Z,1.55
2023-08-28T20:40:34.170Z,1.50
2023-08-28T20:43:01.366Z,1.75
2023-08-28T20:45:28.987Z,1.75
2023-08-28T20:47:56.195Z,1.20
2023-08-28T20:50:24.864Z,1.75
2023-08-28T20:52:51.807Z,1.20
2023-08-28T20:55:19.876Z,1.00
2023-08-28T20:57:46.866Z,0.93
2023-08-28T21:00:14.248Z,0.80
2023-08-28T21:02:41.466Z,1.00
2023-08-28T21:05:08.649Z,1.02
2023-08-28T21:07:35.503Z,0.95
2023-08-28T21:10:03.074Z,0.77
2023-08-28T21:12:29.960Z,0.93
2023-08-28T21:14:56.864Z,1.10
2023-08-28T21:17:23.756Z,0.98
2023-08-28T21:19:52.403Z,0.82
2023-08-28T21:22:21.279Z,0.90
2023-08-28T21:24:48.100Z,1.00
2023-08-28T21:27:15.227Z,1.05
2023-08-28T21:29:42.095Z,0.93
2023-08-28T21:32:09.826Z,0.93
2023-08-28T21:34:36.761Z,0.90
2023-08-28T21:37:03.655Z,0.90
2023-08-28T21:39:30.503Z,0.93
2023-08-28T21:41:57.440Z,0.80
2023-08-28T21:44:24.360Z,0.93
2023-08-28T21:46:51.243Z,1.10
2023-08-28T21:49:37.759Z,0.82
2023-08-28T21:52:22.954Z,0.93
2023-08-28T21:55:08.806Z,0.80
2023-08-28T21:57:53.998Z,0.93
2023-08-28T22:00:40.500Z,0.95
2023-08-28T22:03:26.495Z,1.00
2023-08-28T22:06:12.026Z,1.03
2023-08-28T22:08:39.347Z,1.23
2023-08-28T22:11:44.033Z,0.90
2023-08-28T22:14:21.641Z,1.13
2023-08-28T22:16:48.712Z,1.33
2023-08-28T22:19:15.929Z,1.00
2023-08-28T22:21:43.504Z,1.40
2023-08-28T22:24:10.658Z,1.10
2023-08-28T22:26:37.703Z,1.13
2023-08-28T22:29:04.712Z,1.20
2023-08-28T22:31:31.590Z,1.30
2023-08-28T22:33:58.514Z,1.17
2023-08-28T22:36:26.219Z,1.27
2023-08-28T22:38:53.185Z,1.10
2023-08-28T22:41:20.035Z,1.20
2023-08-28T22:43:46.934Z,0.90
2023-08-28T22:46:13.890Z,1.02
2023-08-28T22:48:42.176Z,1.13
2023-08-28T22:51:09.060Z,1.17
2023-08-28T22:53:35.903Z,1.10
2023-08-28T22:56:03.467Z,1.38
2023-08-28T22:58:30.373Z,1.67
2023-08-28T23:00:57.335Z,1.08
2023-08-28T23:03:24.296Z,1.20
2023-08-28T23:05:51.209Z,1.02
2023-08-28T23:08:18.094Z,1.40
2023-08-28T23:10:44.937Z,1.40
2023-08-28T23:13:11.892Z,1.17
2023-08-28T23:15:40.129Z,1.70
2023-08-28T23:18:07.716Z,1.15
2023-08-28T23:20:35.249Z,1.08
2023-08-28T23:23:02.084Z,1.02
2023-08-28T23:25:28.976Z,1.17
2023-08-28T23:27:55.943Z,1.00
2023-08-28T23:30:23.025Z,1.00
2023-08-28T23:32:50.028Z,0.98
2023-08-28T23:35:17.010Z,1.20
2023-08-28T23:37:43.919Z,1.15
2023-08-28T23:40:14.860Z,0.98
2023-08-28T23:42:42.004Z,1.05
2023-08-28T23:45:09.160Z,0.98
2023-08-28T23:47:36.823Z,1.10
2023-08-28T23:50:03.875Z,1.10
2023-08-28T23:52:30.774Z,1.00
2023-08-28T23:54:57.626Z,1.20
2023-08-28T23:57:24.490Z,1.38
2023-08-28T23:59:51.346Z,0.90
